Aviation Digital Data Service (ADDS)

Output produced by METARs form (1017 UTC 19 April 2014)
found at http://aviationweather.gov/adds/metars/
 
KDAG 190950Z AUTO 26008KT 10SM CLR 18/06 A2990 RMK AO2 SLP104 T01780056
KDAG 190520Z 1906/2006 25009KT P6SM SCT100 BKN150 
     FM191600 30008KT P6SM SCT100 
     FM200000 26011KT P6SM SCT120
       
KEDW 190958Z AUTO 21008KT 10SM CLR 14/05 A2991 RMK AO2 SLP112 T01360045
TAF KEDW 1910/2016 VRB06KT 9999 FEW150 QNH2989INS 
     BECMG 1920/1921 26012KT 9999 FEW200 QNH2983INS 
     TEMPO 1923/2004 27012G18KT 
     BECMG 2004/2005 24009KT 9999 SKC QNH2991INS TX27/1922Z TN11/1913Z
       
KVCV 190955Z AUTO 21004KT 10SM 11/07 A2993 RMK AO2
KONT 190953Z 33003KT 10SM SCT200 13/10 A2994 RMK AO2 SLP130 T01330100
KONT 190909Z 1909/2012 VRB04KT P6SM SCT025 
     FM192100 25010KT P6SM FEW025 
     FM200400 VRB04KT P6SM SCT025
       
KSNA 190953Z AUTO 00000KT 9SM CLR 16/13 A2994 RMK AO2 SLP138 T01610128 TSNO
KSNA 191017Z 1910/2006 VRB04KT P6SM SCT025 
     FM192000 25008KT P6SM SCT025 
     FM200200 VRB04KT P6SM SKC
       
KSAN 190951Z 00000KT 10SM OVC027 18/11 A2994 RMK AO2 SLP138 T01830106 $
KSAN 190908Z 1909/2012 VRB04KT P6SM OVC030 
     FM191700 VRB04KT P6SM SCT030 
     FM192000 29009KT P6SM SCT030 
     FM200200 VRB04KT P6SM SCT025 
     FM200600 VRB04KT P6SM BKN025
       
KNID 190956Z AUTO 21006KT 10SM 14/06 A2987 RMK AO2 SLP103 T01440061 $
TAF KNID 1823/1923 13015G25KT 9999 FEW080 BKN250 BKN280 QNH2975INS 
     BECMG 1904/1905 21007KT SCT250 QNH2981INS T12/1912Z T29/1922Z LAST NO AMD AFT 1905/ NEXT 2115
       
KNXP 190956Z AUTO 04003KT 10SM CLR 18/04 A2997 RMK AO2 SLP115 T01780044 $
TAF KNXP 1909/2009 VRB05KT 9999 BKN120 BKN200 QNH2994INS 
     BECMG 1920/1922 31007KT 9999 SCT120 QNH2993INS AUTOMATED SENSOR METWATCH 1909 TIL 2215 T16/1913Z T27/1923Z
       
KPSP 190953Z AUTO 31006KT 10SM CLR 20/10 A2988 RMK AO2 SLP114 T02000100 TSNO
KPSP 190520Z 1906/2006 32007KT P6SM BKN080 
     FM192300 33009KT P6SM SCT080
       
KLAX 190953Z 00000KT 9SM SCT200 15/12 A2994 RMK AO2 SLP137 T01500117
KLAX 190532Z 1906/2012 26006KT P6SM BKN200 
     FM191100 VRB03KT P6SM OVC015 
     FM191800 26010KT P6SM SCT250 
     FM200400 VRB03KT P6SM SCT250 
     FM201000 VRB03KT P6SM OVC008
       
KCNO 190953Z AUTO 00000KT 8SM CLR 12/10 A2996 RMK AO2 SLP139 T01220100
KSMO 190951Z 00000KT 10SM CLR 16/11 A2994 RMK AO2 SLP138 T01560111
KLGB 190953Z AUTO 14003KT 8SM CLR 14/11 A2994 RMK AO2 SLP137 T01440111 TSNO $
KLGB 190532Z 1906/2006 VRB03KT P6SM BKN200 
     FM191000 VRB03KT P6SM OVC015 
     FM191800 20007KT P6SM SCT250 
     FM200000 29008KT P6SM SCT250 
     FM200500 VRB03KT P6SM SCT250
       
KVNY 190951Z 00000KT 10SM CLR 14/09 A2993 RMK AO2 SLP130 T01390094
KVNY 190532Z 1906/2006 VRB03KT P6SM BKN200 
     FM191200 VRB03KT P6SM OVC015 
     FM191700 14008KT P6SM SCT250 
     FM200400 VRB03KT P6SM SCT250
       
KBUR 190953Z 00000KT 10SM CLR 14/10 A2993 RMK AO2 SLP126 T01440100 $
KBUR 190532Z 1906/2006 VRB03KT P6SM BKN200 
     FM191200 VRB03KT P6SM OVC015 
     FM191700 17008KT P6SM SCT250 
     FM200400 VRB03KT P6SM SCT250
       
KBFL 190954Z AUTO 00000KT 10SM CLR 18/08 A2990 RMK AO2 SLP121 T01780078
KBFL 190536Z 1906/2006 35004KT P6SM SCT200 
     FM200000 31010KT P6SM SKC
       
KPMD 190953Z AUTO 19005KT 10SM CLR 14/03 A2994 RMK AO2 SLP116 T01390028
KPMD 190532Z 1906/2006 24007KT P6SM BKN200 
     FM191200 VRB03KT P6SM SCT200 
     FM192200 26015KT P6SM SCT200 
     FM200400 25008KT P6SM SCT200
       
KOXR 190951Z AUTO 00000KT 8SM CLR 12/10 A2993 RMK AO2 SLP133 T01220100
KOXR 190532Z 1906/2006 28007KT P6SM BKN090 
     FM191000 VRB03KT P6SM BKN015 
     FM191600 VRB03KT P6SM BKN022 
     FM191800 26010KT P6SM SCT025 
     FM200400 VRB03KT P6SM SKC
       
KWJF 190956Z 25007KT 10SM CLR 13/03 A2993 RMK AO2 SLP124 T01330028
KWJF 190532Z 1906/2006 25009KT P6SM BKN200 
     FM191200 VRB03KT P6SM SCT200 
     FM192000 25010KT P6SM SCT200 
     FM192300 25018G25KT P6SM SCT200 
     FM200500 25015KT P6SM SCT200
       
KCMA 190955Z AUTO 00000KT 9SM CLR 12/09 A2992 RMK AO2 SLP141 T01220094
KFAT 190953Z 33004KT 10SM SCT200 17/09 A2989 RMK AO2 SLP118 T01720089
KFAT 190536Z 1906/2006 31006KT P6SM SCT200 
     FM192300 31013G20KT P6SM SCT250
       
KEED 190956Z AUTO 00000KT 10SM OVC100 23/07 A2989 RMK AO2 SLP092 T02280067 $
KEED 190520Z 1906/2006 16008KT P6SM SCT100 BKN150 
     FM191000 VRB05KT P6SM SCT100 BKN150 
     FM191900 12007KT P6SM SCT100 SCT150 
     FM200200 23006KT P6SM SCT120
       
KLSV 190958Z AUTO 13008KT 10SM SCT220 20/05 A2990 RMK AO2 SLP108 T02010052
TAF KLSV 1909/2015 15012KT 9999 SCT100 QNH2978INS 
     TEMPO 1909/1911 17015G26KT 510009 
     BECMG 1913/1914 13009KT 9999 SCT100 QNH2993INS TX27/2001Z TN18/2012Z
       
KLAS 190956Z 18010KT 10SM FEW160 SCT250 19/03 A2986 RMK AO2 SLP093 T01940033
KLAS 190846Z 1909/2006 16012KT P6SM SCT100 BKN150 
     FM191900 06007KT P6SM FEW100 SCT150 
     FM200300 19007KT P6SM SCT150
       
KHII 190955Z AUTO 12004KT 10SM -RA FEW060 OVC075 21/10 A2988 RMK AO2
KIFP 190955Z AUTO 00000KT 10SM OVC110 21/07 A2989 RMK AO2